Smyrna Airport Smyrna US
ICAO: KMQY
IATA: MQY
Category: Medium
Scheduled Services: No

Elevation: 543 ft
TransAlt. 18000 ft.

Airport Communications:
NASHVILLE APP/DEP:128.45
ASOS:119.125
CLNC DEL:121.4
CTAF:118.5
GND:121.4
ARNG OPS:41.5
TWR:118.5
UNICOM:122.95

KMQY Zoom In..

If you have problems with the map follow the link
https://www.worldairports.se/pages/airport.php?
ICAO=KMQY

Runways:

(A) RW 01 length 5546 ft width 100 ft
---- / hdg 6

(B) RW 14 length 8048 ft width 150 ft
---- / hdg 141

(C) RW 19 length 5546 ft width 100 ft
---- / hdg 186

(D) RW 32 length 8048 ft width 150 ft
ILS 111.10 / hdg 321

Location; KMQY
Day. 12 / Time. 23.56 Zulu
* Altimeter: 30.27
* Temperature: 08° c. 46.4°f.
* Wind from: 000° Speed 00 kn.
Dewpoint: -02° c.
Visibility: 10 Statute Miles.
Clouds: Overcast 4400 ft.

KMQY 122356Z 00000KT 10SM OVC044 08/M02 A3027 RMK AO2 SLP261 T00831022 10133 20078 55016


Wind - Calm.

 
 
jpsmedia worldairports.se 2019   terms of use